Time;durP1;ratioP1;P1;durP2;ratioP2;P2;SDS_P1;SDS_P2;PMS_P1;PMS_P2;Temp;Humidity;BMP_temperature;BMP_pressure;BME280_temperature;BME280_humidity;BME280_pressure;Samples;Min_cycle;Max_cycle;Signal;HPM_P1;HPM_P2
2022/04/07 00:02:13;;;;;;;13.27;12.87;;;11.10;66.60;;;;;;6247280;22;20158;-81
2022/04/07 00:04:39;;;;;;;13.40;12.90;;;11.00;67.80;;;;;;6247107;22;20161;-81
2022/04/07 00:07:05;;;;;;;13.60;13.10;;;11.00;67.60;;;;;;6247464;22;20161;-81
2022/04/07 00:09:30;;;;;;;14.30;13.80;;;11.10;66.50;;;;;;6247224;22;20209;-81
2022/04/07 00:11:56;;;;;;;13.43;12.83;;;11.10;66.10;;;;;;6246873;22;20485;-81
2022/04/07 00:14:22;;;;;;;13.10;12.70;;;11.00;67.10;;;;;;6246900;22;20225;-81
2022/04/07 00:16:48;;;;;;;13.93;13.43;;;11.00;68.10;;;;;;6246814;22;20185;-81
2022/04/07 00:19:14;;;;;;;13.57;13.13;;;11.00;68.40;;;;;;6247143;22;20155;-81
2022/04/07 00:21:46;;;;;;;14.17;13.67;;;10.90;67.40;;;;;;6247053;22;20162;-81
2022/04/07 00:24:12;;;;;;;14.00;13.50;;;10.90;67.30;;;;;;6247191;22;20401;-81
2022/04/07 00:26:38;;;;;;;13.93;13.43;;;10.90;68.00;;;;;;6246656;22;20964;-81
2022/04/07 00:29:04;;;;;;;13.87;13.37;;;10.90;67.70;;;;;;6246871;22;20463;-81
2022/04/07 00:31:39;;;;;;;14.40;13.87;;;10.90;67.80;;;;;;6247261;22;20520;-81
2022/04/07 00:34:06;;;;;;;13.77;13.27;;;10.90;67.40;;;;;;6246781;22;20546;-81
2022/04/07 00:36:32;;;;;;;14.93;14.23;;;10.90;67.70;;;;;;6246590;22;20415;-81
2022/04/07 00:38:58;;;;;;;13.80;13.40;;;10.90;66.90;;;;;;6246685;22;20464;-81
2022/04/07 00:41:23;;;;;;;14.57;13.97;;;10.90;67.00;;;;;;6246123;22;20375;-81
2022/04/07 00:43:53;;;;;;;14.53;14.03;;;10.90;68.30;;;;;;6246564;22;20397;-81
2022/04/07 00:46:19;;;;;;;14.30;13.80;;;10.90;66.90;;;;;;6246912;22;20159;-81
2022/04/07 00:48:46;;;;;;;14.00;13.50;;;11.00;67.40;;;;;;6246636;22;20459;-81
2022/04/07 00:51:12;;;;;;;13.47;13.07;;;10.90;66.60;;;;;;6246783;22;20209;-81
2022/04/07 00:53:39;;;;;;;14.37;13.90;;;11.00;67.50;;;;;;6246440;22;20385;-81
2022/04/07 00:56:07;;;;;;;14.30;13.80;;;11.00;66.90;;;;;;6245869;22;20723;-81
2022/04/07 00:58:34;;;;;;;13.87;13.33;;;10.90;66.20;;;;;;6246435;22;20887;-81
2022/04/07 01:01:00;;;;;;;13.90;13.30;;;10.90;67.00;;;;;;6246039;22;20392;-81
2022/04/07 01:03:26;;;;;;;13.70;13.20;;;10.90;67.70;;;;;;6246206;22;20382;-81
2022/04/07 01:05:51;;;;;;;13.10;12.70;;;10.90;67.70;;;;;;6274877;22;20147;-81
2022/04/07 01:08:17;;;;;;;12.97;12.57;;;10.80;67.90;;;;;;6246659;22;20834;-81
2022/04/07 01:10:45;;;;;;;14.33;13.73;;;10.90;68.00;;;;;;6246410;22;20455;-81
2022/04/07 01:13:11;;;;;;;13.53;13.10;;;10.80;67.90;;;;;;6245977;22;20408;-82
2022/04/07 01:15:38;;;;;;;14.30;13.67;;;10.90;68.20;;;;;;6246369;22;20831;-82
2022/04/07 01:18:05;;;;;;;13.40;13.00;;;10.80;67.80;;;;;;6246056;22;20447;-80
2022/04/07 01:20:31;;;;;;;13.23;12.73;;;10.90;67.30;;;;;;6246264;22;20390;-80
2022/04/07 01:22:58;;;;;;;13.90;13.40;;;10.90;67.80;;;;;;6246032;22;20849;-80
2022/04/07 01:25:26;;;;;;;12.60;12.20;;;10.90;66.40;;;;;;6275205;22;20625;-80
2022/04/07 01:27:53;;;;;;;13.37;12.97;;;10.90;66.50;;;;;;6248407;22;20381;-80
2022/04/07 01:30:19;;;;;;;12.57;12.17;;;11.00;66.20;;;;;;6248344;22;20497;-80
2022/04/07 01:32:49;;;;;;;12.53;12.13;;;11.00;66.40;;;;;;6248047;22;20437;-80
2022/04/07 01:35:15;;;;;;;12.40;12.00;;;11.00;66.80;;;;;;6248079;22;20155;-80
2022/04/07 01:37:44;;;;;;;12.50;12.10;;;10.90;66.30;;;;;;6249323;22;20373;-80
2022/04/07 01:40:14;;;;;;;12.07;11.57;;;10.90;66.30;;;;;;6275496;22;20731;-80
2022/04/07 01:42:40;;;;;;;11.87;11.47;;;10.90;66.30;;;;;;6248706;22;20381;-79
2022/04/07 01:45:07;;;;;;;11.80;11.40;;;10.90;66.10;;;;;;6248420;22;20393;-79
2022/04/07 01:47:37;;;;;;;11.90;11.50;;;10.90;65.90;;;;;;6249272;22;20163;-80
2022/04/07 01:50:08;;;;;;;11.80;11.40;;;10.80;65.90;;;;;;6249194;22;20425;-79
2022/04/07 01:52:35;;;;;;;11.30;10.90;;;10.80;66.30;;;;;;6248450;22;20385;-79
2022/04/07 01:55:02;;;;;;;11.83;11.47;;;10.80;66.80;;;;;;6248391;22;20388;-80
2022/04/07 01:57:28;;;;;;;11.70;11.40;;;10.70;67.20;;;;;;6248173;22;20381;-79
2022/04/07 01:59:54;;;;;;;11.87;11.47;;;10.70;66.80;;;;;;6247744;22;20389;-79
2022/04/07 02:02:24;;;;;;;12.77;12.27;;;10.70;67.80;;;;;;6247723;22;20439;-80
2022/04/07 02:04:55;;;;;;;11.87;11.47;;;10.70;67.20;;;;;;6247869;22;20449;-80
2022/04/07 02:07:22;;;;;;;11.67;11.33;;;10.70;67.60;;;;;;6247529;22;20857;-80
2022/04/07 02:09:48;;;;;;;12.50;11.60;;;10.70;67.00;;;;;;6248169;22;20971;-79
2022/04/07 02:12:14;;;;;;;12.50;12.00;;;10.70;66.80;;;;;;6247333;22;20470;-79
2022/04/07 02:14:40;;;;;;;11.40;11.00;;;10.80;66.60;;;;;;6247763;22;20385;-80
2022/04/07 02:17:06;;;;;;;12.17;11.80;;;10.60;66.40;;;;;;6247476;22;20384;-80
2022/04/07 02:19:32;;;;;;;12.70;12.30;;;10.70;66.60;;;;;;6247281;22;20413;-80
2022/04/07 02:21:58;;;;;;;12.57;12.17;;;10.60;66.70;;;;;;6274141;22;20150;-80
2022/04/07 02:24:24;;;;;;;13.00;12.40;;;10.70;67.10;;;;;;6247565;22;20905;-80
2022/04/07 02:26:49;;;;;;;12.30;11.90;;;10.70;66.60;;;;;;6247185;22;20480;-80
2022/04/07 02:29:15;;;;;;;12.87;12.37;;;10.70;66.80;;;;;;6247069;22;20275;-80
2022/04/07 02:31:41;;;;;;;12.63;12.23;;;10.60;66.70;;;;;;6247809;22;20234;-80
2022/04/07 02:34:07;;;;;;;12.53;12.03;;;10.60;67.20;;;;;;6246885;22;20228;-80
2022/04/07 02:36:32;;;;;;;12.43;12.03;;;10.70;65.90;;;;;;6246544;22;20155;-80
2022/04/07 02:38:59;;;;;;;12.30;11.90;;;10.70;65.40;;;;;;6246992;22;20554;-80
2022/04/07 02:41:24;;;;;;;12.23;11.83;;;10.60;65.30;;;;;;6247335;22;20237;-80
2022/04/07 02:43:51;;;;;;;12.30;11.90;;;10.60;66.00;;;;;;6247337;22;20417;-80
2022/04/07 02:46:17;;;;;;;12.70;12.30;;;10.60;65.40;;;;;;6247550;22;20158;-80
2022/04/07 02:48:42;;;;;;;13.20;12.70;;;10.60;65.40;;;;;;6247767;22;20425;-80
2022/04/07 02:51:08;;;;;;;12.53;12.13;;;10.50;65.60;;;;;;6247606;22;20390;-80
2022/04/07 02:53:34;;;;;;;12.07;11.67;;;10.50;66.20;;;;;;6247231;22;20153;-80
2022/04/07 02:56:00;;;;;;;13.30;12.80;;;10.50;66.70;;;;;;6247141;22;20158;-80
2022/04/07 02:58:25;;;;;;;15.43;14.83;;;10.60;65.20;;;;;;6247780;22;20150;-80
2022/04/07 03:00:51;;;;;;;16.30;15.70;;;10.50;61.20;;;;;;6246703;22;20150;-80
2022/04/07 03:03:17;;;;;;;15.07;14.57;;;10.60;59.70;;;;;;6246686;22;20151;-79
2022/04/07 03:05:42;;;;;;;16.97;15.90;;;10.60;59.60;;;;;;6247070;22;20560;-80
2022/04/07 03:08:08;;;;;;;15.27;14.77;;;10.60;59.60;;;;;;6246929;22;20181;-80
2022/04/07 03:10:34;;;;;;;16.10;15.60;;;10.60;58.70;;;;;;6246429;22;20212;-80
2022/04/07 03:12:59;;;;;;;16.50;15.90;;;10.50;59.20;;;;;;6246466;22;20155;-80
2022/04/07 03:15:25;;;;;;;15.60;15.10;;;10.50;59.40;;;;;;6247418;22;20150;-79
2022/04/07 03:17:51;;;;;;;15.77;15.27;;;10.40;59.90;;;;;;6247239;22;20154;-79
2022/04/07 03:20:17;;;;;;;16.47;15.93;;;10.40;60.50;;;;;;6274586;22;20185;-80
2022/04/07 03:22:43;;;;;;;16.87;16.30;;;10.40;58.70;;;;;;6247511;22;20170;-80
2022/04/07 03:25:09;;;;;;;17.50;16.90;;;10.30;59.00;;;;;;6247546;22;20155;-80
2022/04/07 03:27:34;;;;;;;17.90;17.13;;;10.40;57.70;;;;;;6248166;22;20472;-80
2022/04/07 03:30:00;;;;;;;16.43;15.93;;;10.40;57.80;;;;;;6247929;22;20219;-80
2022/04/07 03:32:26;;;;;;;16.67;16.07;;;10.40;58.10;;;;;;6247719;22;20189;-80
2022/04/07 03:34:52;;;;;;;17.43;16.83;;;10.40;58.70;;;;;;6248331;22;20151;-80
2022/04/07 03:37:18;;;;;;;17.73;17.13;;;10.40;57.90;;;;;;6248112;22;20239;-80
2022/04/07 03:39:44;;;;;;;18.30;17.60;;;10.40;57.30;;;;;;6248633;22;20159;-80
2022/04/07 03:42:10;;;;;;;16.50;15.90;;;10.50;56.60;;;;;;6248394;22;20904;-80
2022/04/07 03:44:35;;;;;;;17.37;16.67;;;10.50;57.20;;;;;;6248315;22;20454;-80
2022/04/07 03:47:01;;;;;;;17.30;16.60;;;10.50;56.00;;;;;;6248423;22;20150;-80
2022/04/07 03:49:27;;;;;;;16.23;15.73;;;10.40;57.80;;;;;;6248155;22;20174;-80
2022/04/07 03:51:52;;;;;;;16.70;16.10;;;10.40;58.10;;;;;;6248442;22;20155;-80
2022/04/07 03:54:18;;;;;;;16.20;15.60;;;10.40;58.00;;;;;;6248710;22;20245;-80
2022/04/07 03:56:47;;;;;;;17.10;16.50;;;10.40;58.50;;;;;;6248910;22;20158;-80
2022/04/07 04:00:27;;;;;;;;;;;;;;;;;;;;;
2022/04/07 04:02:57;;;;;;;15.70;15.20;;;10.40;57.80;;;;;;6160166;22;20483;-77
2022/04/07 04:05:22;;;;;;;17.37;16.70;;;10.40;56.00;;;;;;6276124;22;20382;-78
2022/04/07 04:07:48;;;;;;;16.87;16.27;;;10.40;56.60;;;;;;6249138;22;20389;-78
2022/04/07 04:10:14;;;;;;;17.50;16.90;;;10.40;57.40;;;;;;6249534;22;20425;-78
2022/04/07 04:12:42;;;;;;;16.83;16.23;;;10.40;56.50;;;;;;6249190;22;20483;-83
2022/04/07 04:15:11;;;;;;;17.13;16.53;;;10.40;56.00;;;;;;6249188;22;20862;-82
2022/04/07 04:17:37;;;;;;;16.83;16.23;;;10.40;55.70;;;;;;6249102;22;20849;-81
2022/04/07 04:20:29;;;;;;;17.03;16.43;;;10.40;57.00;;;;;;6249518;22;20393;-79
2022/04/07 04:22:55;;;;;;;17.20;16.60;;;10.40;55.70;;;;;;6249084;22;20373;-79
2022/04/07 04:25:24;;;;;;;16.40;15.80;;;10.40;55.20;;;;;;6249633;22;20413;-80
2022/04/07 04:27:52;;;;;;;17.30;16.70;;;10.40;56.90;;;;;;6249492;22;20163;-77
2022/04/07 04:33:40;;;;;;;17.00;16.40;;;10.40;56.40;;;;;;6181715;23;20466;-77
2022/04/07 04:36:06;;;;;;;17.40;16.70;;;10.50;55.90;;;;;;6182288;23;20866;-77
2022/04/07 04:38:34;;;;;;;17.93;17.23;;;10.40;55.30;;;;;;6221464;22;20468;-77
2022/04/07 04:41:02;;;;;;;17.50;16.90;;;10.40;55.60;;;;;;6249406;22;20165;-76
2022/04/07 04:43:30;;;;;;;17.17;16.57;;;10.50;55.60;;;;;;6248496;22;20382;-77
2022/04/07 04:45:56;;;;;;;17.43;16.83;;;10.40;55.20;;;;;;6249291;22;20385;-77
2022/04/07 04:48:22;;;;;;;18.83;18.13;;;10.50;55.00;;;;;;6248613;22;20474;-78
2022/04/07 04:50:48;;;;;;;17.77;17.17;;;10.50;54.80;;;;;;6248069;22;20158;-81
2022/04/07 04:53:30;;;;;;;18.93;18.03;;;10.50;54.90;;;;;;6248605;22;20381;-80
2022/04/07 04:55:57;;;;;;;18.27;17.67;;;10.50;54.40;;;;;;6248386;22;20468;-82
2022/04/07 04:58:32;;;;;;;20.70;19.80;;;10.50;54.10;;;;;;6246353;22;20381;-81
2022/04/07 05:01:31;;;;;;;18.63;17.93;;;10.50;54.10;;;;;;6248633;22;20438;-82
2022/04/07 05:07:32;;;;;;;18.17;17.57;;;10.60;52.50;;;;;;6185723;22;20381;-81
2022/04/07 05:10:19;;;;;;;17.23;16.63;;;10.60;54.20;;;;;;6248044;22;20486;-81
2022/04/07 05:12:58;;;;;;;17.43;16.20;;;10.50;55.30;;;;;;6248191;22;20426;-82
2022/04/07 05:15:25;;;;;;;16.27;15.57;;;10.50;55.70;;;;;;6247022;22;20432;-82
2022/04/07 05:17:51;;;;;;;17.13;16.53;;;10.50;56.30;;;;;;6243772;22;20470;-82
2022/04/07 05:20:18;;;;;;;18.90;18.20;;;10.50;56.40;;;;;;6274138;22;20384;-80
2022/04/07 05:22:44;;;;;;;18.43;17.83;;;10.50;55.40;;;;;;6245471;22;20491;-81
2022/04/07 05:25:15;;;;;;;17.00;16.40;;;10.50;54.70;;;;;;6247992;22;20385;-80
2022/04/07 05:27:43;;;;;;;17.93;16.93;;;10.50;56.60;;;;;;6247662;22;20402;-81
2022/04/07 05:30:15;;;;;;;17.20;16.60;;;10.50;56.70;;;;;;6248396;22;20429;-80
2022/04/07 05:32:42;;;;;;;18.20;17.50;;;10.50;56.60;;;;;;6248220;22;20409;-81
2022/04/07 05:35:09;;;;;;;17.07;16.40;;;10.50;57.30;;;;;;6247604;22;20889;-81
2022/04/07 05:37:35;;;;;;;16.73;16.13;;;10.50;56.60;;;;;;6248419;22;20378;-81
2022/04/07 05:40:01;;;;;;;19.03;18.03;;;10.60;57.20;;;;;;6247702;22;20858;-81
2022/04/07 05:42:27;;;;;;;17.00;16.40;;;10.60;57.20;;;;;;6247908;22;20535;-81
2022/04/07 05:44:53;;;;;;;16.57;16.07;;;10.60;56.60;;;;;;6247317;22;20443;-80
2022/04/07 05:47:18;;;;;;;17.10;16.50;;;10.60;56.20;;;;;;6247972;22;20208;-80
2022/04/07 05:49:44;;;;;;;16.27;15.70;;;10.60;54.80;;;;;;6248077;22;20598;-81
2022/04/07 05:52:10;;;;;;;17.00;16.30;;;10.60;55.40;;;;;;6248516;22;20151;-81
2022/04/07 05:54:37;;;;;;;17.00;16.50;;;10.70;55.60;;;;;;6247731;22;20189;-81
2022/04/07 05:57:03;;;;;;;17.07;16.50;;;10.60;55.30;;;;;;6275655;22;20431;-81
2022/04/07 05:59:29;;;;;;;19.17;18.43;;;10.70;55.30;;;;;;6247415;22;20417;-81
2022/04/07 06:01:54;;;;;;;19.13;18.43;;;10.70;54.40;;;;;;6247620;22;20389;-81
2022/04/07 06:04:20;;;;;;;18.97;18.37;;;10.80;53.70;;;;;;6247538;22;20176;-81
2022/04/07 06:06:46;;;;;;;19.10;18.50;;;10.80;53.70;;;;;;6275173;22;20224;-81
2022/04/07 06:09:12;;;;;;;19.17;18.57;;;10.90;53.40;;;;;;6248575;22;20619;-81
2022/04/07 06:11:41;;;;;;;18.77;18.17;;;10.90;53.50;;;;;;6276280;22;20400;-81
2022/04/07 06:14:09;;;;;;;20.07;19.37;;;11.00;50.00;;;;;;6250013;22;20150;-81
2022/04/07 06:16:40;;;;;;;21.30;20.60;;;11.10;51.40;;;;;;6249391;22;20480;-81
2022/04/07 06:19:09;;;;;;;20.53;19.83;;;11.20;50.60;;;;;;6250201;22;20396;-81
2022/04/07 06:21:35;;;;;;;20.70;20.00;;;11.10;49.70;;;;;;6250103;22;20389;-81
2022/04/07 06:24:01;;;;;;;18.93;18.33;;;11.10;50.10;;;;;;6249400;22;20484;-81
2022/04/07 06:26:44;;;;;;;19.93;19.23;;;11.30;48.80;;;;;;6249753;22;20409;-82
2022/04/07 06:29:10;;;;;;;19.87;19.17;;;11.30;47.80;;;;;;6249973;22;20171;-81
2022/04/07 06:31:35;;;;;;;20.43;19.73;;;11.40;48.20;;;;;;6250103;22;20393;-82
2022/04/07 06:34:07;;;;;;;19.30;18.60;;;11.40;48.40;;;;;;6249704;22;20166;-83
2022/04/07 06:36:33;;;;;;;20.03;19.40;;;11.40;48.10;;;;;;6249683;22;20457;-82
2022/04/07 06:38:58;;;;;;;20.13;19.53;;;11.40;48.00;;;;;;6249736;22;20396;-82
2022/04/07 06:41:24;;;;;;;19.73;19.13;;;11.30;48.40;;;;;;6249385;22;20535;-80
2022/04/07 06:43:53;;;;;;;20.47;19.77;;;11.40;49.80;;;;;;6249249;22;20587;-80
2022/04/07 06:46:19;;;;;;;20.67;19.97;;;11.50;52.80;;;;;;6249757;22;20396;-80
2022/04/07 06:48:50;;;;;;;19.70;19.00;;;11.50;49.90;;;;;;6249426;22;20745;-80
2022/04/07 06:51:17;;;;;;;20.53;19.83;;;11.50;50.20;;;;;;6250446;22;20150;-82
2022/04/07 06:53:43;;;;;;;20.57;19.60;;;11.40;48.70;;;;;;6250036;22;20389;-83
2022/04/07 06:56:10;;;;;;;19.60;18.97;;;11.40;49.40;;;;;;6249682;22;20385;-83
2022/04/07 06:58:36;;;;;;;20.03;19.33;;;11.30;49.00;;;;;;6249403;22;20472;-83
2022/04/07 07:01:05;;;;;;;19.30;18.70;;;11.40;48.80;;;;;;6249892;22;20861;-82
2022/04/07 07:03:32;;;;;;;19.30;18.70;;;11.40;46.80;;;;;;6249330;22;20392;-83
2022/04/07 07:06:01;;;;;;;21.57;20.57;;;11.40;48.30;;;;;;6249597;22;20395;-83
2022/04/07 07:08:27;;;;;;;20.40;19.70;;;11.40;49.20;;;;;;6249412;22;20381;-83
2022/04/07 07:10:53;;;;;;;19.13;18.53;;;11.40;47.70;;;;;;6250106;22;20389;-83
2022/04/07 07:13:21;;;;;;;19.97;19.27;;;11.50;47.80;;;;;;6249522;22;20381;-83
2022/04/07 07:15:48;;;;;;;18.20;17.60;;;11.50;48.10;;;;;;6249623;22;20381;-83
2022/04/07 07:18:16;;;;;;;20.10;19.40;;;11.50;48.10;;;;;;6250253;22;20385;-81
2022/04/07 07:20:42;;;;;;;21.80;20.60;;;11.50;49.50;;;;;;6249357;22;20404;-82
2022/04/07 07:23:08;;;;;;;19.10;18.50;;;11.50;49.10;;;;;;6250389;22;20597;-82
2022/04/07 07:25:39;;;;;;;20.00;19.33;;;11.50;47.90;;;;;;6250063;22;20397;-82
2022/04/07 07:28:26;;;;;;;20.40;19.70;;;11.60;47.90;;;;;;6249971;22;20400;-82
2022/04/07 07:30:55;;;;;;;20.07;19.37;;;11.60;46.20;;;;;;6247094;22;20391;-83
2022/04/07 07:33:21;;;;;;;17.90;17.30;;;11.60;47.60;;;;;;6249143;22;20435;-82
2022/04/07 07:35:47;;;;;;;19.33;18.63;;;11.70;48.10;;;;;;6249195;22;20381;-82
2022/04/07 07:38:24;;;;;;;18.67;18.03;;;11.80;47.70;;;;;;6250191;22;20388;-85
2022/04/07 07:40:56;;;;;;;19.93;19.23;;;11.90;45.70;;;;;;6250179;22;20369;-84
2022/04/07 07:43:21;;;;;;;20.90;20.00;;;11.90;46.40;;;;;;6250052;22;20919;-84
2022/04/07 07:45:50;;;;;;;18.70;18.10;;;12.00;47.10;;;;;;6250238;22;20605;-83
2022/04/07 07:48:41;;;;;;;19.27;18.57;;;12.00;45.40;;;;;;6249709;22;20647;-82
2022/04/07 07:51:10;;;;;;;20.33;19.63;;;12.10;45.50;;;;;;6250029;22;20716;-83
2022/04/07 07:54:05;;;;;;;21.00;20.17;;;12.20;45.50;;;;;;6249512;22;20861;-82
2022/04/07 07:56:37;;;;;;;19.80;19.10;;;12.20;45.40;;;;;;6249914;22;20382;-82
2022/04/07 07:59:03;;;;;;;19.23;18.53;;;12.30;45.50;;;;;;6249032;22;20389;-82
2022/04/07 08:01:29;;;;;;;18.37;17.77;;;12.30;45.40;;;;;;6248298;22;20408;-82
2022/04/07 08:03:55;;;;;;;19.50;18.70;;;12.30;45.40;;;;;;6248980;22;20564;-81
2022/04/07 08:06:28;;;;;;;19.33;18.67;;;12.30;44.90;;;;;;6248637;22;20385;-81
2022/04/07 08:08:54;;;;;;;20.27;19.57;;;12.30;44.50;;;;;;6248584;22;20456;-82
2022/04/07 08:11:23;;;;;;;20.00;19.20;;;12.30;45.70;;;;;;6248583;22;20378;-83
2022/04/07 08:13:49;;;;;;;19.37;18.57;;;12.40;44.90;;;;;;6248818;22;20393;-82
2022/04/07 08:16:14;;;;;;;19.17;18.40;;;12.30;45.90;;;;;;6249053;22;20385;-81
2022/04/07 08:18:40;;;;;;;19.97;19.27;;;12.50;44.20;;;;;;6248773;22;20748;-82
2022/04/07 08:21:08;;;;;;;20.07;19.37;;;12.50;43.80;;;;;;6248474;22;20384;-82
2022/04/07 08:23:34;;;;;;;19.93;19.23;;;12.40;42.90;;;;;;6248365;22;20385;-81
2022/04/07 08:26:03;;;;;;;18.73;18.13;;;12.50;43.50;;;;;;6248444;22;20761;-82
2022/04/07 08:28:29;;;;;;;21.33;20.63;;;12.50;43.10;;;;;;6247865;22;20150;-82
2022/04/07 08:31:05;;;;;;;21.80;20.90;;;12.50;43.70;;;;;;6249130;22;20401;-82
2022/04/07 08:33:39;;;;;;;20.00;19.20;;;12.60;43.50;;;;;;6247949;22;20223;-82
2022/04/07 08:36:06;;;;;;;19.00;18.40;;;12.60;42.80;;;;;;6248513;22;20458;-81
2022/04/07 08:38:32;;;;;;;21.67;20.87;;;12.70;43.10;;;;;;6248243;22;20473;-81
2022/04/07 08:40:58;;;;;;;22.53;21.53;;;12.70;42.50;;;;;;6248710;22;20413;-82
2022/04/07 08:43:31;;;;;;;21.30;20.40;;;12.80;43.20;;;;;;6248519;22;20154;-82
2022/04/07 08:45:58;;;;;;;20.97;20.27;;;12.70;42.30;;;;;;6247957;22;20393;-82
2022/04/07 08:48:25;;;;;;;22.53;21.53;;;12.90;42.40;;;;;;6249349;22;20377;-81
2022/04/07 08:50:58;;;;;;;20.73;20.03;;;12.90;42.50;;;;;;6248107;22;20776;-80
2022/04/07 08:53:28;;;;;;;20.80;19.90;;;13.00;41.10;;;;;;6248325;22;20468;-81
2022/04/07 08:55:53;;;;;;;21.50;20.70;;;13.10;42.20;;;;;;6248546;22;20747;-81
2022/04/07 08:58:19;;;;;;;21.00;20.30;;;13.10;40.90;;;;;;6248633;22;20459;-82
2022/04/07 09:00:49;;;;;;;21.90;21.00;;;13.10;41.10;;;;;;6247815;22;20158;-81
2022/04/07 09:03:18;;;;;;;21.47;20.57;;;13.20;40.30;;;;;;6248820;22;20407;-81
2022/04/07 09:05:59;;;;;;;22.07;21.20;;;13.20;41.20;;;;;;6248514;22;20381;-80
2022/04/07 09:08:33;;;;;;;21.87;20.77;;;13.20;40.00;;;;;;6247892;22;20868;-81
2022/04/07 09:11:00;;;;;;;20.80;20.10;;;13.20;41.00;;;;;;6275339;22;20707;-81
2022/04/07 09:13:42;;;;;;;21.10;20.40;;;13.30;39.20;;;;;;6248135;22;20385;-81
2022/04/07 09:16:13;;;;;;;20.70;20.00;;;13.30;39.50;;;;;;6244827;22;20386;-80
2022/04/07 09:18:49;;;;;;;20.80;20.10;;;13.20;38.80;;;;;;6247280;22;20377;-81
2022/04/07 09:21:37;;;;;;;20.13;19.23;;;13.30;39.20;;;;;;6248719;22;20381;-81
2022/04/07 09:24:08;;;;;;;21.30;20.40;;;13.30;39.00;;;;;;6247800;22;20389;-76
2022/04/07 09:26:41;;;;;;;19.97;19.30;;;13.20;39.40;;;;;;6247960;22;20374;-76
2022/04/07 09:29:11;;;;;;;19.43;18.73;;;13.40;39.30;;;;;;6247963;22;20802;-76
2022/04/07 09:31:49;;;;;;;20.90;20.10;;;13.30;40.10;;;;;;6247891;22;20385;-77
2022/04/07 09:34:15;;;;;;;19.20;18.60;;;13.20;42.00;;;;;;6248069;22;20411;-78
2022/04/07 09:36:41;;;;;;;19.77;19.10;;;13.20;40.40;;;;;;6247825;22;20568;-77
2022/04/07 09:39:07;;;;;;;21.37;20.57;;;13.20;40.00;;;;;;6248300;22;20280;-77
2022/04/07 09:41:32;;;;;;;20.07;19.30;;;13.20;42.90;;;;;;6247724;22;20163;-77
2022/04/07 09:44:01;;;;;;;20.23;19.53;;;13.20;44.30;;;;;;6247789;22;20642;-78
2022/04/07 09:46:34;;;;;;;20.67;19.87;;;13.10;43.00;;;;;;6250342;22;20209;-77
2022/04/07 09:49:07;;;;;;;20.37;19.57;;;13.00;45.40;;;;;;6250230;22;20421;-77
2022/04/07 09:51:40;;;;;;;19.20;18.40;;;13.00;45.70;;;;;;6250262;22;20388;-76
2022/04/07 09:54:09;;;;;;;20.47;19.57;;;12.90;45.50;;;;;;6249616;22;20992;-77
2022/04/07 09:56:35;;;;;;;21.07;20.07;;;13.00;44.90;;;;;;6250073;22;20385;-77
2022/04/07 09:59:05;;;;;;;18.40;17.70;;;13.00;45.20;;;;;;6250127;22;20408;-77
2022/04/07 10:01:32;;;;;;;18.37;17.67;;;13.20;45.70;;;;;;6250318;22;20854;-77
2022/04/07 10:03:59;;;;;;;19.33;18.60;;;13.30;42.30;;;;;;6249938;22;20404;-77
2022/04/07 10:06:26;;;;;;;19.23;18.53;;;13.30;44.30;;;;;;6250254;22;20472;-77
2022/04/07 10:08:59;;;;;;;19.83;19.10;;;13.30;43.90;;;;;;6250016;22;20429;-77
2022/04/07 10:11:25;;;;;;;20.30;19.50;;;13.40;42.20;;;;;;6249779;22;20668;-77
2022/04/07 10:13:51;;;;;;;20.33;19.63;;;13.50;41.00;;;;;;6249408;22;20435;-77
2022/04/07 10:16:17;;;;;;;20.60;19.80;;;13.60;42.20;;;;;;6249773;22;20381;-77
2022/04/07 10:18:59;;;;;;;19.47;18.87;;;13.60;42.00;;;;;;6250105;22;20385;-77
2022/04/07 10:21:42;;;;;;;19.80;19.03;;;13.70;39.10;;;;;;6249928;22;20920;-77
2022/04/07 10:24:23;;;;;;;21.20;20.50;;;13.70;39.90;;;;;;6249916;22;20382;-76
2022/04/07 10:26:50;;;;;;;19.00;18.40;;;13.70;39.10;;;;;;6249795;22;20365;-77
2022/04/07 10:29:23;;;;;;;19.70;19.10;;;13.80;39.00;;;;;;6249547;22;20425;-77
2022/04/07 10:32:10;;;;;;;21.10;20.30;;;13.80;38.30;;;;;;6276309;22;20373;-76
2022/04/07 10:34:37;;;;;;;20.60;19.90;;;13.80;39.10;;;;;;6249386;22;20416;-76
2022/04/07 10:37:22;;;;;;;20.23;19.53;;;13.90;38.30;;;;;;6249581;22;20377;-77
2022/04/07 10:39:55;;;;;;;20.13;19.30;;;13.70;38.70;;;;;;6246773;22;20385;-76
2022/04/07 10:42:59;;;;;;;19.50;18.90;;;13.70;39.20;;;;;;6249666;22;20474;-77
2022/04/07 10:46:08;;;;;;;20.40;19.57;;;13.80;39.40;;;;;;6249809;22;20932;-76
2022/04/07 10:48:39;;;;;;;20.27;19.57;;;13.80;40.00;;;;;;6260039;22;20393;-77
2022/04/07 10:51:09;;;;;;;20.30;19.60;;;13.80;39.10;;;;;;6249618;22;20373;-78
2022/04/07 10:53:54;;;;;;;18.60;18.00;;;13.80;39.80;;;;;;6249862;22;20377;-78
2022/04/07 10:56:39;;;;;;;20.10;19.43;;;13.80;39.10;;;;;;6248670;22;20401;-78
2022/04/07 10:59:21;;;;;;;20.50;19.60;;;13.90;39.70;;;;;;6249538;22;20396;-78
2022/04/07 11:02:12;;;;;;;20.50;19.80;;;14.00;39.70;;;;;;6250129;22;20389;-77
2022/04/07 11:04:49;;;;;;;19.93;19.33;;;14.10;38.50;;;;;;6249302;22;20538;-77
2022/04/07 11:07:19;;;;;;;20.90;20.20;;;14.10;37.60;;;;;;6248773;22;20373;-77
2022/04/07 11:15:58;;;;;;;20.27;19.57;;;13.90;39.30;;;;;;6216737;23;20179;-81
2022/04/07 11:19:24;;;;;;;22.00;20.60;;;14.00;37.60;;;;;;6220082;23;20513;-81
2022/04/07 11:21:50;;;;;;;19.97;19.27;;;14.10;38.00;;;;;;6124001;23;20468;-81
2022/04/07 11:24:23;;;;;;;20.77;20.07;;;14.10;38.10;;;;;;6099466;23;20846;-80
2022/04/07 11:27:19;;;;;;;20.63;19.93;;;14.10;38.10;;;;;;6160666;23;20386;-81
2022/04/07 11:30:04;;;;;;;19.60;18.90;;;14.10;37.40;;;;;;6217890;23;20430;-76
2022/04/07 11:32:30;;;;;;;20.27;19.40;;;14.20;38.10;;;;;;6218600;23;20461;-77
2022/04/07 11:34:58;;;;;;;21.10;20.40;;;14.30;37.50;;;;;;6217652;23;20410;-77
2022/04/07 11:37:24;;;;;;;20.90;20.20;;;14.30;37.80;;;;;;6218840;23;20409;-76
2022/04/07 11:39:51;;;;;;;21.50;20.80;;;14.30;37.80;;;;;;6219040;23;20387;-77
2022/04/07 11:42:19;;;;;;;21.60;20.90;;;14.30;37.70;;;;;;6219116;23;20198;-78
2022/04/07 11:44:55;;;;;;;21.70;21.00;;;14.30;38.10;;;;;;6217485;23;20867;-78
2022/04/07 11:47:30;;;;;;;21.10;20.40;;;14.40;38.50;;;;;;6219702;23;20155;-79
2022/04/07 11:49:56;;;;;;;20.87;20.10;;;14.30;38.20;;;;;;6218653;23;20449;-79
2022/04/07 11:52:31;;;;;;;21.80;21.10;;;14.30;38.30;;;;;;6219536;23;20387;-79
2022/04/07 11:54:59;;;;;;;20.17;19.50;;;14.40;38.40;;;;;;6218826;23;20448;-77
2022/04/07 11:57:33;;;;;;;21.07;20.37;;;14.40;38.50;;;;;;6218703;23;20382;-78
2022/04/07 12:00:05;;;;;;;21.13;20.43;;;14.40;38.60;;;;;;6246125;23;20351;-78
2022/04/07 12:02:34;;;;;;;19.40;18.80;;;14.30;38.20;;;;;;6218134;23;20397;-78
2022/04/07 12:05:03;;;;;;;20.43;19.73;;;14.30;38.70;;;;;;6218849;23;20390;-78
2022/04/07 12:07:29;;;;;;;21.13;19.90;;;14.30;40.10;;;;;;6219013;23;20390;-79
2022/04/07 12:09:56;;;;;;;21.90;20.70;;;14.20;38.80;;;;;;6218651;23;20426;-78
2022/04/07 12:12:24;;;;;;;20.47;19.27;;;14.30;38.70;;;;;;6218409;23;20409;-79
2022/04/07 12:14:51;;;;;;;20.20;19.50;;;14.30;38.60;;;;;;6218069;23;20425;-77
2022/04/07 12:17:16;;;;;;;20.37;19.33;;;14.30;38.60;;;;;;6218968;23;20465;-77
2022/04/07 12:19:46;;;;;;;20.77;19.97;;;14.20;38.90;;;;;;6219010;23;20881;-77
2022/04/07 12:22:13;;;;;;;20.67;19.97;;;14.20;37.70;;;;;;6218754;23;20165;-77
2022/04/07 12:24:56;;;;;;;21.57;20.67;;;14.20;38.90;;;;;;6218878;23;20397;-77
2022/04/07 12:27:33;;;;;;;22.20;20.47;;;14.30;38.70;;;;;;6218565;23;20382;-78
2022/04/07 12:30:00;;;;;;;20.40;19.70;;;14.20;39.10;;;;;;6218661;23;20517;-77
2022/04/07 12:32:40;;;;;;;18.80;18.20;;;14.10;39.90;;;;;;6218908;23;20444;-77
2022/04/07 12:35:06;;;;;;;19.30;18.70;;;14.10;40.10;;;;;;6218801;23;20374;-78
2022/04/07 12:37:39;;;;;;;20.87;20.17;;;14.00;40.30;;;;;;6218550;23;20386;-77
2022/04/07 12:40:27;;;;;;;20.00;19.30;;;14.00;40.70;;;;;;6218708;23;20394;-77
2022/04/07 12:42:59;;;;;;;20.07;19.17;;;14.00;40.90;;;;;;6204242;23;20394;-76
2022/04/07 12:45:25;;;;;;;19.40;18.80;;;13.90;41.00;;;;;;6218154;23;20422;-77
2022/04/07 12:48:10;;;;;;;19.30;18.70;;;13.90;40.70;;;;;;6218743;23;20382;-77
2022/04/07 12:50:37;;;;;;;19.60;18.87;;;13.80;41.10;;;;;;6218483;23;20573;-77
2022/04/07 12:53:03;;;;;;;20.27;19.67;;;13.80;40.80;;;;;;6218930;23;20381;-78
2022/04/07 12:55:39;;;;;;;20.60;19.90;;;13.80;41.50;;;;;;6218108;23;20680;-76